sensor_id;sensor_type;location;lat;lon;timestamp;P1;durP1;ratioP1;P2;durP2;ratioP2
25365;SDS011;13315;48.274;-1.900;2023-07-28T00:02:20;5.50;;;5.20;;
25365;SDS011;13315;48.274;-1.900;2023-07-28T00:04:46;5.60;;;5.30;;
25365;SDS011;13315;48.274;-1.900;2023-07-28T00:07:12;5.22;;;5.03;;
25365;SDS011;13315;48.274;-1.900;2023-07-28T00:09:38;5.38;;;5.10;;
25365;SDS011;13315;48.274;-1.900;2023-07-28T00:12:04;4.57;;;4.38;;
25365;SDS011;13315;48.274;-1.900;2023-07-28T00:14:30;5.22;;;4.97;;
25365;SDS011;13315;48.274;-1.900;2023-07-28T00:16:57;7.45;;;5.07;;
25365;SDS011;13315;48.274;-1.900;2023-07-28T00:19:23;5.53;;;5.18;;
25365;SDS011;13315;48.274;-1.900;2023-07-28T00:21:50;5.40;;;5.10;;
25365;SDS011;13315;48.274;-1.900;2023-07-28T00:24:16;5.45;;;5.15;;
25365;SDS011;13315;48.274;-1.900;2023-07-28T00:26:43;5.22;;;5.03;;
25365;SDS011;13315;48.274;-1.900;2023-07-28T00:29:09;4.90;;;4.70;;
25365;SDS011;13315;48.274;-1.900;2023-07-28T00:31:35;5.00;;;4.80;;
25365;SDS011;13315;48.274;-1.900;2023-07-28T00:34:02;4.70;;;4.50;;
25365;SDS011;13315;48.274;-1.900;2023-07-28T00:36:28;5.20;;;4.90;;
25365;SDS011;13315;48.274;-1.900;2023-07-28T00:38:54;4.60;;;4.40;;
25365;SDS011;13315;48.274;-1.900;2023-07-28T00:41:20;4.78;;;4.57;;
25365;SDS011;13315;48.274;-1.900;2023-07-28T00:43:46;5.00;;;4.80;;
25365;SDS011;13315;48.274;-1.900;2023-07-28T00:46:12;5.00;;;4.70;;
25365;SDS011;13315;48.274;-1.900;2023-07-28T00:48:40;4.88;;;4.68;;
25365;SDS011;13315;48.274;-1.900;2023-07-28T00:51:07;5.18;;;4.88;;
25365;SDS011;13315;48.274;-1.900;2023-07-28T00:53:33;4.97;;;4.70;;
25365;SDS011;13315;48.274;-1.900;2023-07-28T00:56:00;4.90;;;4.60;;
25365;SDS011;13315;48.274;-1.900;2023-07-28T00:58:27;5.13;;;4.93;;
25365;SDS011;13315;48.274;-1.900;2023-07-28T01:00:53;5.50;;;5.20;;
25365;SDS011;13315;48.274;-1.900;2023-07-28T01:03:19;5.40;;;5.20;;
25365;SDS011;13315;48.274;-1.900;2023-07-28T01:08:16;5.75;;;5.45;;
25365;SDS011;13315;48.274;-1.900;2023-07-28T01:10:43;5.25;;;5.05;;
25365;SDS011;13315;48.274;-1.900;2023-07-28T01:13:09;5.10;;;4.80;;
25365;SDS011;13315;48.274;-1.900;2023-07-28T01:15:35;5.10;;;4.80;;
25365;SDS011;13315;48.274;-1.900;2023-07-28T01:18:01;4.97;;;4.78;;
25365;SDS011;13315;48.274;-1.900;2023-07-28T01:20:28;5.18;;;4.97;;
25365;SDS011;13315;48.274;-1.900;2023-07-28T01:27:56;6.50;;;6.10;;
25365;SDS011;13315;48.274;-1.900;2023-07-28T01:30:23;5.90;;;5.60;;
25365;SDS011;13315;48.274;-1.900;2023-07-28T01:32:53;6.32;;;6.03;;
25365;SDS011;13315;48.274;-1.900;2023-07-28T01:35:19;6.50;;;6.10;;
25365;SDS011;13315;48.274;-1.900;2023-07-28T01:37:45;6.57;;;6.28;;
25365;SDS011;13315;48.274;-1.900;2023-07-28T01:40:15;6.20;;;5.90;;
25365;SDS011;13315;48.274;-1.900;2023-07-28T01:42:41;5.47;;;5.18;;
25365;SDS011;13315;48.274;-1.900;2023-07-28T01:45:08;6.00;;;5.70;;
25365;SDS011;13315;48.274;-1.900;2023-07-28T01:47:34;6.50;;;6.10;;
25365;SDS011;13315;48.274;-1.900;2023-07-28T01:50:00;6.45;;;6.10;;
25365;SDS011;13315;48.274;-1.900;2023-07-28T01:52:26;5.60;;;5.30;;
25365;SDS011;13315;48.274;-1.900;2023-07-28T01:54:52;5.30;;;5.00;;
25365;SDS011;13315;48.274;-1.900;2023-07-28T01:57:18;5.43;;;5.13;;
25365;SDS011;13315;48.274;-1.900;2023-07-28T01:59:44;5.43;;;5.13;;
25365;SDS011;13315;48.274;-1.900;2023-07-28T02:02:10;5.20;;;4.90;;
25365;SDS011;13315;48.274;-1.900;2023-07-28T02:04:36;5.70;;;5.40;;
25365;SDS011;13315;48.274;-1.900;2023-07-28T02:07:03;5.70;;;5.15;;
25365;SDS011;13315;48.274;-1.900;2023-07-28T02:09:29;5.28;;;4.80;;
25365;SDS011;13315;48.274;-1.900;2023-07-28T02:11:55;5.57;;;5.28;;
25365;SDS011;13315;48.274;-1.900;2023-07-28T02:14:21;4.95;;;4.75;;
25365;SDS011;13315;48.274;-1.900;2023-07-28T02:16:47;4.93;;;4.72;;
25365;SDS011;13315;48.274;-1.900;2023-07-28T02:19:13;4.78;;;4.57;;
25365;SDS011;13315;48.274;-1.900;2023-07-28T02:21:39;4.82;;;4.63;;
25365;SDS011;13315;48.274;-1.900;2023-07-28T02:24:05;4.70;;;4.50;;
25365;SDS011;13315;48.274;-1.900;2023-07-28T02:26:31;5.10;;;4.90;;
25365;SDS011;13315;48.274;-1.900;2023-07-28T02:28:57;5.47;;;5.18;;
25365;SDS011;13315;48.274;-1.900;2023-07-28T02:31:23;5.72;;;5.43;;
25365;SDS011;13315;48.274;-1.900;2023-07-28T02:33:49;5.47;;;5.18;;
25365;SDS011;13315;48.274;-1.900;2023-07-28T02:36:15;5.70;;;5.40;;
25365;SDS011;13315;48.274;-1.900;2023-07-28T02:38:41;5.15;;;4.95;;
25365;SDS011;13315;48.274;-1.900;2023-07-28T02:41:07;10.30;;;5.85;;
25365;SDS011;13315;48.274;-1.900;2023-07-28T02:43:33;5.50;;;5.20;;
25365;SDS011;13315;48.274;-1.900;2023-07-28T02:46:00;5.50;;;5.30;;
25365;SDS011;13315;48.274;-1.900;2023-07-28T02:48:26;5.43;;;5.18;;
25365;SDS011;13315;48.274;-1.900;2023-07-28T02:50:52;5.20;;;4.90;;
25365;SDS011;13315;48.274;-1.900;2023-07-28T02:53:18;5.43;;;5.13;;
25365;SDS011;13315;48.274;-1.900;2023-07-28T02:55:45;5.22;;;4.93;;
25365;SDS011;13315;48.274;-1.900;2023-07-28T02:58:12;6.13;;;5.72;;
25365;SDS011;13315;48.274;-1.900;2023-07-28T03:00:38;5.47;;;5.18;;
25365;SDS011;13315;48.274;-1.900;2023-07-28T03:03:05;8.93;;;5.60;;
25365;SDS011;13315;48.274;-1.900;2023-07-28T03:05:31;5.85;;;5.55;;
25365;SDS011;13315;48.274;-1.900;2023-07-28T03:07:57;6.47;;;6.07;;
25365;SDS011;13315;48.274;-1.900;2023-07-28T03:10:23;6.00;;;5.70;;
25365;SDS011;13315;48.274;-1.900;2023-07-28T03:12:50;5.40;;;5.20;;
25365;SDS011;13315;48.274;-1.900;2023-07-28T03:15:16;5.78;;;5.47;;
25365;SDS011;13315;48.274;-1.900;2023-07-28T03:17:42;5.35;;;5.15;;
25365;SDS011;13315;48.274;-1.900;2023-07-28T03:20:08;5.90;;;5.60;;
25365;SDS011;13315;48.274;-1.900;2023-07-28T03:22:34;5.53;;;5.28;;
25365;SDS011;13315;48.274;-1.900;2023-07-28T03:25:00;5.43;;;5.13;;
25365;SDS011;13315;48.274;-1.900;2023-07-28T03:27:26;5.43;;;5.22;;
25365;SDS011;13315;48.274;-1.900;2023-07-28T03:29:52;5.80;;;5.50;;
25365;SDS011;13315;48.274;-1.900;2023-07-28T03:32:18;5.35;;;5.15;;
25365;SDS011;13315;48.274;-1.900;2023-07-28T03:34:44;5.10;;;4.90;;
25365;SDS011;13315;48.274;-1.900;2023-07-28T03:37:10;5.30;;;5.00;;
25365;SDS011;13315;48.274;-1.900;2023-07-28T03:39:36;5.43;;;5.13;;
25365;SDS011;13315;48.274;-1.900;2023-07-28T03:42:03;5.55;;;5.25;;
25365;SDS011;13315;48.274;-1.900;2023-07-28T03:44:29;5.30;;;5.05;;
25365;SDS011;13315;48.274;-1.900;2023-07-28T03:46:55;5.40;;;5.15;;
25365;SDS011;13315;48.274;-1.900;2023-07-28T03:49:21;5.97;;;5.68;;
25365;SDS011;13315;48.274;-1.900;2023-07-28T03:51:47;6.13;;;5.82;;
25365;SDS011;13315;48.274;-1.900;2023-07-28T03:54:13;5.40;;;5.00;;
25365;SDS011;13315;48.274;-1.900;2023-07-28T03:56:39;4.85;;;4.65;;
25365;SDS011;13315;48.274;-1.900;2023-07-28T03:59:05;5.20;;;5.00;;
25365;SDS011;13315;48.274;-1.900;2023-07-28T04:01:31;5.20;;;4.90;;
25365;SDS011;13315;48.274;-1.900;2023-07-28T04:03:57;4.72;;;4.53;;
25365;SDS011;13315;48.274;-1.900;2023-07-28T04:06:41;5.15;;;4.85;;
25365;SDS011;13315;48.274;-1.900;2023-07-28T04:09:07;4.90;;;4.70;;
25365;SDS011;13315;48.274;-1.900;2023-07-28T04:11:34;4.82;;;4.63;;
25365;SDS011;13315;48.274;-1.900;2023-07-28T04:14:00;5.13;;;4.82;;
25365;SDS011;13315;48.274;-1.900;2023-07-28T04:16:26;4.68;;;4.38;;
25365;SDS011;13315;48.274;-1.900;2023-07-28T04:18:52;4.70;;;4.50;;
25365;SDS011;13315;48.274;-1.900;2023-07-28T04:21:18;5.00;;;4.70;;
25365;SDS011;13315;48.274;-1.900;2023-07-28T04:23:45;4.53;;;4.22;;
25365;SDS011;13315;48.274;-1.900;2023-07-28T04:26:11;4.05;;;3.85;;
25365;SDS011;13315;48.274;-1.900;2023-07-28T04:28:37;3.88;;;3.67;;
25365;SDS011;13315;48.274;-1.900;2023-07-28T04:31:03;4.40;;;4.20;;
25365;SDS011;13315;48.274;-1.900;2023-07-28T04:33:29;4.60;;;4.40;;
25365;SDS011;13315;48.274;-1.900;2023-07-28T04:35:55;5.03;;;4.82;;
25365;SDS011;13315;48.274;-1.900;2023-07-28T04:38:21;4.13;;;3.92;;
25365;SDS011;13315;48.274;-1.900;2023-07-28T04:40:47;4.20;;;4.00;;
25365;SDS011;13315;48.274;-1.900;2023-07-28T04:43:13;5.00;;;4.70;;
25365;SDS011;13315;48.274;-1.900;2023-07-28T04:45:39;4.90;;;4.70;;
25365;SDS011;13315;48.274;-1.900;2023-07-28T04:48:05;4.35;;;4.15;;
25365;SDS011;13315;48.274;-1.900;2023-07-28T04:50:31;4.78;;;4.55;;
25365;SDS011;13315;48.274;-1.900;2023-07-28T04:52:58;4.72;;;4.53;;
25365;SDS011;13315;48.274;-1.900;2023-07-28T04:55:24;4.60;;;4.40;;
25365;SDS011;13315;48.274;-1.900;2023-07-28T04:57:52;5.10;;;4.80;;
25365;SDS011;13315;48.274;-1.900;2023-07-28T05:00:18;5.35;;;5.05;;
25365;SDS011;13315;48.274;-1.900;2023-07-28T05:02:44;5.45;;;5.15;;
25365;SDS011;13315;48.274;-1.900;2023-07-28T05:05:10;5.38;;;5.07;;
25365;SDS011;13315;48.274;-1.900;2023-07-28T05:07:36;5.05;;;4.85;;
25365;SDS011;13315;48.274;-1.900;2023-07-28T05:10:02;5.25;;;4.95;;
25365;SDS011;13315;48.274;-1.900;2023-07-28T05:12:28;4.72;;;4.53;;
25365;SDS011;13315;48.274;-1.900;2023-07-28T05:14:54;5.43;;;5.13;;
25365;SDS011;13315;48.274;-1.900;2023-07-28T05:17:21;5.18;;;4.88;;
25365;SDS011;13315;48.274;-1.900;2023-07-28T05:19:47;5.10;;;4.60;;
25365;SDS011;13315;48.274;-1.900;2023-07-28T05:22:13;4.55;;;4.35;;
25365;SDS011;13315;48.274;-1.900;2023-07-28T05:24:39;5.32;;;5.03;;
25365;SDS011;13315;48.274;-1.900;2023-07-28T05:27:05;4.38;;;4.18;;
25365;SDS011;13315;48.274;-1.900;2023-07-28T05:29:31;4.80;;;4.60;;
25365;SDS011;13315;48.274;-1.900;2023-07-28T05:32:00;4.45;;;4.25;;
25365;SDS011;13315;48.274;-1.900;2023-07-28T05:34:26;5.05;;;4.75;;
25365;SDS011;13315;48.274;-1.900;2023-07-28T05:36:53;4.20;;;3.92;;
25365;SDS011;13315;48.274;-1.900;2023-07-28T05:39:19;3.97;;;3.78;;
25365;SDS011;13315;48.274;-1.900;2023-07-28T05:41:45;4.18;;;3.97;;
25365;SDS011;13315;48.274;-1.900;2023-07-28T05:44:11;4.30;;;4.00;;
25365;SDS011;13315;48.274;-1.900;2023-07-28T05:46:37;3.30;;;3.20;;
25365;SDS011;13315;48.274;-1.900;2023-07-28T05:49:03;3.95;;;3.75;;
25365;SDS011;13315;48.274;-1.900;2023-07-28T05:51:30;3.90;;;3.70;;
25365;SDS011;13315;48.274;-1.900;2023-07-28T05:53:56;3.88;;;3.67;;
25365;SDS011;13315;48.274;-1.900;2023-07-28T05:56:22;3.70;;;3.50;;
25365;SDS011;13315;48.274;-1.900;2023-07-28T05:58:48;3.40;;;3.30;;
25365;SDS011;13315;48.274;-1.900;2023-07-28T06:01:15;3.70;;;3.55;;
25365;SDS011;13315;48.274;-1.900;2023-07-28T06:03:41;5.93;;;3.50;;
25365;SDS011;13315;48.274;-1.900;2023-07-28T06:06:07;3.30;;;3.17;;
25365;SDS011;13315;48.274;-1.900;2023-07-28T06:08:34;3.60;;;3.40;;
25365;SDS011;13315;48.274;-1.900;2023-07-28T06:11:02;3.10;;;3.00;;
25365;SDS011;13315;48.274;-1.900;2023-07-28T06:15:55;3.08;;;2.97;;
25365;SDS011;13315;48.274;-1.900;2023-07-28T06:18:23;2.97;;;2.87;;
25365;SDS011;13315;48.274;-1.900;2023-07-28T06:20:49;3.10;;;2.90;;
25365;SDS011;13315;48.274;-1.900;2023-07-28T06:23:15;3.20;;;3.00;;
25365;SDS011;13315;48.274;-1.900;2023-07-28T06:25:41;2.95;;;2.85;;
25365;SDS011;13315;48.274;-1.900;2023-07-28T06:28:11;3.50;;;3.30;;
25365;SDS011;13315;48.274;-1.900;2023-07-28T06:30:37;2.90;;;2.80;;
25365;SDS011;13315;48.274;-1.900;2023-07-28T06:33:06;3.50;;;3.30;;
25365;SDS011;13315;48.274;-1.900;2023-07-28T06:35:33;3.63;;;3.42;;
25365;SDS011;13315;48.274;-1.900;2023-07-28T06:37:59;3.45;;;3.25;;
25365;SDS011;13315;48.274;-1.900;2023-07-28T06:40:25;2.92;;;2.83;;
25365;SDS011;13315;48.274;-1.900;2023-07-28T06:42:51;3.15;;;3.05;;
25365;SDS011;13315;48.274;-1.900;2023-07-28T06:45:17;3.80;;;3.50;;
25365;SDS011;13315;48.274;-1.900;2023-07-28T06:47:43;3.20;;;3.00;;
25365;SDS011;13315;48.274;-1.900;2023-07-28T06:50:13;3.00;;;2.80;;
25365;SDS011;13315;48.274;-1.900;2023-07-28T06:52:39;3.00;;;2.80;;
25365;SDS011;13315;48.274;-1.900;2023-07-28T06:55:05;2.95;;;2.85;;
25365;SDS011;13315;48.274;-1.900;2023-07-28T06:57:31;2.40;;;2.30;;
25365;SDS011;13315;48.274;-1.900;2023-07-28T07:00:00;2.63;;;2.53;;
25365;SDS011;13315;48.274;-1.900;2023-07-28T07:02:26;2.67;;;2.58;;
25365;SDS011;13315;48.274;-1.900;2023-07-28T07:04:52;2.50;;;2.40;;
25365;SDS011;13315;48.274;-1.900;2023-07-28T07:07:18;2.97;;;2.88;;
25365;SDS011;13315;48.274;-1.900;2023-07-28T07:09:44;2.88;;;2.78;;
25365;SDS011;13315;48.274;-1.900;2023-07-28T07:12:11;2.60;;;2.50;;
25365;SDS011;13315;48.274;-1.900;2023-07-28T07:14:37;2.50;;;2.40;;
25365;SDS011;13315;48.274;-1.900;2023-07-28T07:17:03;2.70;;;2.50;;
25365;SDS011;13315;48.274;-1.900;2023-07-28T07:19:29;2.70;;;2.60;;
25365;SDS011;13315;48.274;-1.900;2023-07-28T07:21:56;2.58;;;2.47;;
25365;SDS011;13315;48.274;-1.900;2023-07-28T07:24:22;2.40;;;2.30;;
25365;SDS011;13315;48.274;-1.900;2023-07-28T07:26:48;2.30;;;2.20;;
25365;SDS011;13315;48.274;-1.900;2023-07-28T07:29:15;2.88;;;2.67;;
25365;SDS011;13315;48.274;-1.900;2023-07-28T07:31:42;3.65;;;2.30;;
25365;SDS011;13315;48.274;-1.900;2023-07-28T07:34:08;2.30;;;2.20;;
25365;SDS011;13315;48.274;-1.900;2023-07-28T07:36:34;2.38;;;2.28;;
25365;SDS011;13315;48.274;-1.900;2023-07-28T07:39:00;2.67;;;2.58;;
25365;SDS011;13315;48.274;-1.900;2023-07-28T07:41:26;2.40;;;2.30;;
25365;SDS011;13315;48.274;-1.900;2023-07-28T07:43:54;3.13;;;2.78;;
25365;SDS011;13315;48.274;-1.900;2023-07-28T07:46:20;2.88;;;2.67;;
25365;SDS011;13315;48.274;-1.900;2023-07-28T07:48:46;2.40;;;2.30;;
25365;SDS011;13315;48.274;-1.900;2023-07-28T07:51:13;2.80;;;2.70;;
25365;SDS011;13315;48.274;-1.900;2023-07-28T07:53:39;2.45;;;2.35;;
25365;SDS011;13315;48.274;-1.900;2023-07-28T07:56:06;2.92;;;2.70;;
25365;SDS011;13315;48.274;-1.900;2023-07-28T07:58:33;2.60;;;2.50;;
25365;SDS011;13315;48.274;-1.900;2023-07-28T08:01:00;2.35;;;2.25;;
25365;SDS011;13315;48.274;-1.900;2023-07-28T08:03:26;2.58;;;2.40;;
25365;SDS011;13315;48.274;-1.900;2023-07-28T08:05:52;2.25;;;2.15;;
25365;SDS011;13315;48.274;-1.900;2023-07-28T08:08:18;2.15;;;2.05;;
25365;SDS011;13315;48.274;-1.900;2023-07-28T08:10:48;2.40;;;2.30;;
25365;SDS011;13315;48.274;-1.900;2023-07-28T08:13:14;2.72;;;2.60;;
25365;SDS011;13315;48.274;-1.900;2023-07-28T08:15:42;2.38;;;2.28;;
25365;SDS011;13315;48.274;-1.900;2023-07-28T08:18:08;2.30;;;2.20;;
25365;SDS011;13315;48.274;-1.900;2023-07-28T08:20:34;2.08;;;1.98;;
25365;SDS011;13315;48.274;-1.900;2023-07-28T08:23:00;1.90;;;1.80;;
25365;SDS011;13315;48.274;-1.900;2023-07-28T08:25:27;1.80;;;1.80;;
25365;SDS011;13315;48.274;-1.900;2023-07-28T08:27:53;1.88;;;1.77;;
25365;SDS011;13315;48.274;-1.900;2023-07-28T08:30:19;1.73;;;1.70;;
25365;SDS011;13315;48.274;-1.900;2023-07-28T08:32:45;1.77;;;1.67;;
25365;SDS011;13315;48.274;-1.900;2023-07-28T08:35:11;1.70;;;1.60;;
25365;SDS011;13315;48.274;-1.900;2023-07-28T08:37:37;1.55;;;1.55;;
25365;SDS011;13315;48.274;-1.900;2023-07-28T08:40:04;1.50;;;1.50;;
25365;SDS011;13315;48.274;-1.900;2023-07-28T08:42:31;1.73;;;1.63;;
25365;SDS011;13315;48.274;-1.900;2023-07-28T08:44:57;1.98;;;1.88;;
25365;SDS011;13315;48.274;-1.900;2023-07-28T08:47:23;1.50;;;1.50;;
25365;SDS011;13315;48.274;-1.900;2023-07-28T08:49:49;1.75;;;1.65;;
25365;SDS011;13315;48.274;-1.900;2023-07-28T08:52:15;1.40;;;1.40;;
25365;SDS011;13315;48.274;-1.900;2023-07-28T08:54:42;1.40;;;1.40;;
25365;SDS011;13315;48.274;-1.900;2023-07-28T08:57:11;1.40;;;1.40;;
25365;SDS011;13315;48.274;-1.900;2023-07-28T08:59:37;1.50;;;1.40;;
25365;SDS011;13315;48.274;-1.900;2023-07-28T09:02:08;1.50;;;1.50;;
25365;SDS011;13315;48.274;-1.900;2023-07-28T09:07:02;1.60;;;1.50;;
25365;SDS011;13315;48.274;-1.900;2023-07-28T09:09:31;1.50;;;1.40;;
25365;SDS011;13315;48.274;-1.900;2023-07-28T09:11:58;1.80;;;1.70;;
25365;SDS011;13315;48.274;-1.900;2023-07-28T09:14:25;1.45;;;1.45;;
25365;SDS011;13315;48.274;-1.900;2023-07-28T09:16:51;1.50;;;1.40;;
25365;SDS011;13315;48.274;-1.900;2023-07-28T09:19:19;1.40;;;1.30;;
25365;SDS011;13315;48.274;-1.900;2023-07-28T09:21:45;1.50;;;1.50;;
25365;SDS011;13315;48.274;-1.900;2023-07-28T09:24:22;1.50;;;1.50;;
25365;SDS011;13315;48.274;-1.900;2023-07-28T09:26:48;1.40;;;1.40;;
25365;SDS011;13315;48.274;-1.900;2023-07-28T09:31:41;1.30;;;1.30;;
25365;SDS011;13315;48.274;-1.900;2023-07-28T09:34:08;1.40;;;1.30;;
25365;SDS011;13315;48.274;-1.900;2023-07-28T09:36:34;1.50;;;1.40;;
25365;SDS011;13315;48.274;-1.900;2023-07-28T09:39:02;1.20;;;1.20;;
25365;SDS011;13315;48.274;-1.900;2023-07-28T09:41:31;1.40;;;1.30;;
25365;SDS011;13315;48.274;-1.900;2023-07-28T09:43:58;1.50;;;1.40;;
25365;SDS011;13315;48.274;-1.900;2023-07-28T09:46:24;1.40;;;1.40;;
25365;SDS011;13315;48.274;-1.900;2023-07-28T09:48:54;1.40;;;1.40;;
25365;SDS011;13315;48.274;-1.900;2023-07-28T09:51:21;1.52;;;1.45;;
25365;SDS011;13315;48.274;-1.900;2023-07-28T09:53:53;1.50;;;1.40;;
25365;SDS011;13315;48.274;-1.900;2023-07-28T09:56:20;1.23;;;1.23;;
25365;SDS011;13315;48.274;-1.900;2023-07-28T09:58:51;1.57;;;1.47;;
25365;SDS011;13315;48.274;-1.900;2023-07-28T10:01:18;1.45;;;1.35;;
25365;SDS011;13315;48.274;-1.900;2023-07-28T10:03:45;1.67;;;1.58;;
25365;SDS011;13315;48.274;-1.900;2023-07-28T10:06:11;1.42;;;1.42;;
25365;SDS011;13315;48.274;-1.900;2023-07-28T10:08:37;1.25;;;1.25;;
25365;SDS011;13315;48.274;-1.900;2023-07-28T10:11:03;1.30;;;1.30;;
25365;SDS011;13315;48.274;-1.900;2023-07-28T10:13:33;1.20;;;1.20;;
25365;SDS011;13315;48.274;-1.900;2023-07-28T10:16:05;1.40;;;1.30;;
25365;SDS011;13315;48.274;-1.900;2023-07-28T10:18:31;1.20;;;1.20;;
25365;SDS011;13315;48.274;-1.900;2023-07-28T10:21:04;1.20;;;1.20;;
25365;SDS011;13315;48.274;-1.900;2023-07-28T10:23:30;1.33;;;1.30;;
25365;SDS011;13315;48.274;-1.900;2023-07-28T10:26:00;1.35;;;1.25;;
25365;SDS011;13315;48.274;-1.900;2023-07-28T10:28:31;1.20;;;1.20;;
25365;SDS011;13315;48.274;-1.900;2023-07-28T10:30:58;1.30;;;1.30;;
25365;SDS011;13315;48.274;-1.900;2023-07-28T10:33:35;1.23;;;1.23;;
25365;SDS011;13315;48.274;-1.900;2023-07-28T10:38:39;1.00;;;1.00;;
25365;SDS011;13315;48.274;-1.900;2023-07-28T10:43:32;1.27;;;1.27;;
25365;SDS011;13315;48.274;-1.900;2023-07-28T10:45:59;1.20;;;1.20;;
25365;SDS011;13315;48.274;-1.900;2023-07-28T10:48:25;1.30;;;1.30;;
25365;SDS011;13315;48.274;-1.900;2023-07-28T10:50:52;1.20;;;1.20;;
25365;SDS011;13315;48.274;-1.900;2023-07-28T10:53:18;1.20;;;1.20;;
25365;SDS011;13315;48.274;-1.900;2023-07-28T10:55:44;1.20;;;1.20;;
25365;SDS011;13315;48.274;-1.900;2023-07-28T10:58:11;1.23;;;1.23;;
25365;SDS011;13315;48.274;-1.900;2023-07-28T11:00:37;1.20;;;1.20;;
25365;SDS011;13315;48.274;-1.900;2023-07-28T11:03:03;1.20;;;1.20;;
25365;SDS011;13315;48.274;-1.900;2023-07-28T11:05:29;1.70;;;1.60;;
25365;SDS011;13315;48.274;-1.900;2023-07-28T11:07:59;1.50;;;1.40;;
25365;SDS011;13315;48.274;-1.900;2023-07-28T11:10:29;1.10;;;1.10;;
25365;SDS011;13315;48.274;-1.900;2023-07-28T11:12:57;1.00;;;1.00;;
25365;SDS011;13315;48.274;-1.900;2023-07-28T11:15:24;1.30;;;1.30;;
25365;SDS011;13315;48.274;-1.900;2023-07-28T11:17:51;1.20;;;1.20;;
25365;SDS011;13315;48.274;-1.900;2023-07-28T11:20:21;1.25;;;1.20;;
25365;SDS011;13315;48.274;-1.900;2023-07-28T11:25:20;1.27;;;1.27;;
25365;SDS011;13315;48.274;-1.900;2023-07-28T11:27:47;0.98;;;0.98;;
25365;SDS011;13315;48.274;-1.900;2023-07-28T11:30:13;1.02;;;1.02;;
25365;SDS011;13315;48.274;-1.900;2023-07-28T11:32:41;1.10;;;1.10;;
25365;SDS011;13315;48.274;-1.900;2023-07-28T11:35:08;1.17;;;1.10;;
25365;SDS011;13315;48.274;-1.900;2023-07-28T11:37:35;1.00;;;1.00;;
25365;SDS011;13315;48.274;-1.900;2023-07-28T11:40:03;1.00;;;1.00;;
25365;SDS011;13315;48.274;-1.900;2023-07-28T11:42:34;1.20;;;1.20;;
25365;SDS011;13315;48.274;-1.900;2023-07-28T11:45:02;1.10;;;1.10;;
25365;SDS011;13315;48.274;-1.900;2023-07-28T11:47:28;1.10;;;1.10;;
25365;SDS011;13315;48.274;-1.900;2023-07-28T11:49:55;1.00;;;1.00;;
25365;SDS011;13315;48.274;-1.900;2023-07-28T11:52:23;1.33;;;1.33;;
25365;SDS011;13315;48.274;-1.900;2023-07-28T11:54:51;0.98;;;0.98;;
25365;SDS011;13315;48.274;-1.900;2023-07-28T11:57:18;0.93;;;0.93;;
25365;SDS011;13315;48.274;-1.900;2023-07-28T11:59:44;1.23;;;1.13;;
25365;SDS011;13315;48.274;-1.900;2023-07-28T12:02:10;0.90;;;0.90;;
25365;SDS011;13315;48.274;-1.900;2023-07-28T12:04:37;0.90;;;0.90;;
25365;SDS011;13315;48.274;-1.900;2023-07-28T12:07:11;1.00;;;1.00;;
25365;SDS011;13315;48.274;-1.900;2023-07-28T12:12:39;1.20;;;1.20;;
25365;SDS011;13315;48.274;-1.900;2023-07-28T12:15:19;0.98;;;0.98;;
25365;SDS011;13315;48.274;-1.900;2023-07-28T12:18:02;0.80;;;0.80;;
25365;SDS011;13315;48.274;-1.900;2023-07-28T12:20:38;1.00;;;1.00;;
25365;SDS011;13315;48.274;-1.900;2023-07-28T12:23:05;0.80;;;0.80;;
25365;SDS011;13315;48.274;-1.900;2023-07-28T12:25:31;0.90;;;0.90;;
25365;SDS011;13315;48.274;-1.900;2023-07-28T12:27:57;0.80;;;0.80;;
25365;SDS011;13315;48.274;-1.900;2023-07-28T12:30:23;1.00;;;1.00;;
25365;SDS011;13315;48.274;-1.900;2023-07-28T12:32:50;0.90;;;0.90;;
25365;SDS011;13315;48.274;-1.900;2023-07-28T12:35:16;0.75;;;0.75;;
25365;SDS011;13315;48.274;-1.900;2023-07-28T12:37:42;0.90;;;0.90;;
25365;SDS011;13315;48.274;-1.900;2023-07-28T12:40:08;0.90;;;0.90;;
25365;SDS011;13315;48.274;-1.900;2023-07-28T12:42:35;0.90;;;0.90;;
25365;SDS011;13315;48.274;-1.900;2023-07-28T12:45:01;0.80;;;0.80;;
25365;SDS011;13315;48.274;-1.900;2023-07-28T12:47:27;0.88;;;0.88;;
25365;SDS011;13315;48.274;-1.900;2023-07-28T12:49:53;0.93;;;0.93;;
25365;SDS011;13315;48.274;-1.900;2023-07-28T12:52:20;0.73;;;0.73;;
25365;SDS011;13315;48.274;-1.900;2023-07-28T12:54:46;0.80;;;0.80;;
25365;SDS011;13315;48.274;-1.900;2023-07-28T12:57:13;0.90;;;0.90;;
25365;SDS011;13315;48.274;-1.900;2023-07-28T12:59:39;0.90;;;0.90;;
25365;SDS011;13315;48.274;-1.900;2023-07-28T13:02:05;1.15;;;1.00;;
25365;SDS011;13315;48.274;-1.900;2023-07-28T13:04:31;0.90;;;0.90;;
25365;SDS011;13315;48.274;-1.900;2023-07-28T13:06:57;0.85;;;0.85;;
25365;SDS011;13315;48.274;-1.900;2023-07-28T13:09:23;0.80;;;0.80;;
25365;SDS011;13315;48.274;-1.900;2023-07-28T13:11:49;2.33;;;0.90;;
25365;SDS011;13315;48.274;-1.900;2023-07-28T13:14:16;1.00;;;1.00;;
25365;SDS011;13315;48.274;-1.900;2023-07-28T13:16:42;0.80;;;0.80;;
25365;SDS011;13315;48.274;-1.900;2023-07-28T13:19:09;0.90;;;0.90;;
25365;SDS011;13315;48.274;-1.900;2023-07-28T13:21:35;0.80;;;0.80;;
25365;SDS011;13315;48.274;-1.900;2023-07-28T13:24:01;0.85;;;0.85;;
25365;SDS011;13315;48.274;-1.900;2023-07-28T13:26:28;0.90;;;0.90;;
25365;SDS011;13315;48.274;-1.900;2023-07-28T13:28:54;0.90;;;0.90;;
25365;SDS011;13315;48.274;-1.900;2023-07-28T13:31:22;1.08;;;0.98;;
25365;SDS011;13315;48.274;-1.900;2023-07-28T13:33:48;0.80;;;0.80;;
25365;SDS011;13315;48.274;-1.900;2023-07-28T13:36:14;1.08;;;1.08;;
25365;SDS011;13315;48.274;-1.900;2023-07-28T13:38:40;0.90;;;0.90;;
25365;SDS011;13315;48.274;-1.900;2023-07-28T13:41:06;1.20;;;1.10;;
25365;SDS011;13315;48.274;-1.900;2023-07-28T13:43:32;0.98;;;0.98;;
25365;SDS011;13315;48.274;-1.900;2023-07-28T13:46:05;0.77;;;0.77;;
25365;SDS011;13315;48.274;-1.900;2023-07-28T13:48:32;1.20;;;1.20;;
25365;SDS011;13315;48.274;-1.900;2023-07-28T13:50:58;1.00;;;1.00;;
25365;SDS011;13315;48.274;-1.900;2023-07-28T13:53:24;1.20;;;1.10;;
25365;SDS011;13315;48.274;-1.900;2023-07-28T13:55:51;0.80;;;0.80;;
25365;SDS011;13315;48.274;-1.900;2023-07-28T13:58:17;0.80;;;0.80;;
25365;SDS011;13315;48.274;-1.900;2023-07-28T14:00:43;1.38;;;1.27;;
25365;SDS011;13315;48.274;-1.900;2023-07-28T14:03:09;0.90;;;0.90;;
25365;SDS011;13315;48.274;-1.900;2023-07-28T14:05:36;5.15;;;1.00;;
25365;SDS011;13315;48.274;-1.900;2023-07-28T14:08:02;1.23;;;1.00;;
25365;SDS011;13315;48.274;-1.900;2023-07-28T14:10:28;1.23;;;1.00;;
25365;SDS011;13315;48.274;-1.900;2023-07-28T14:12:54;0.90;;;0.90;;
25365;SDS011;13315;48.274;-1.900;2023-07-28T14:15:20;0.90;;;0.90;;
25365;SDS011;13315;48.274;-1.900;2023-07-28T14:17:46;1.00;;;1.00;;
25365;SDS011;13315;48.274;-1.900;2023-07-28T14:20:12;0.90;;;0.90;;
25365;SDS011;13315;48.274;-1.900;2023-07-28T14:22:38;4.68;;;1.40;;
25365;SDS011;13315;48.274;-1.900;2023-07-28T14:25:04;0.98;;;0.98;;
25365;SDS011;13315;48.274;-1.900;2023-07-28T14:27:31;0.98;;;0.98;;
25365;SDS011;13315;48.274;-1.900;2023-07-28T14:29:57;1.55;;;1.23;;
25365;SDS011;13315;48.274;-1.900;2023-07-28T14:32:23;1.00;;;1.00;;
25365;SDS011;13315;48.274;-1.900;2023-07-28T14:34:49;0.82;;;0.82;;
25365;SDS011;13315;48.274;-1.900;2023-07-28T14:37:15;0.80;;;0.80;;
25365;SDS011;13315;48.274;-1.900;2023-07-28T14:39:41;1.42;;;1.33;;
25365;SDS011;13315;48.274;-1.900;2023-07-28T14:42:07;0.80;;;0.80;;
25365;SDS011;13315;48.274;-1.900;2023-07-28T14:44:33;0.93;;;0.93;;
25365;SDS011;13315;48.274;-1.900;2023-07-28T14:46:59;0.98;;;0.98;;
25365;SDS011;13315;48.274;-1.900;2023-07-28T14:49:26;0.90;;;0.90;;
25365;SDS011;13315;48.274;-1.900;2023-07-28T14:51:53;0.80;;;0.80;;
25365;SDS011;13315;48.274;-1.900;2023-07-28T14:54:19;1.63;;;1.30;;
25365;SDS011;13315;48.274;-1.900;2023-07-28T14:56:45;0.90;;;0.90;;